sensor_id;sensor_type;location;lat;lon;timestamp;P1;durP1;ratioP1;P2;durP2;ratioP2
66112;SDS011;52893;52.870;5.822;2023-12-20T00:02:26;3.22;;;0.60;;
66112;SDS011;52893;52.870;5.822;2023-12-20T00:04:53;2.28;;;1.40;;
66112;SDS011;52893;52.870;5.822;2023-12-20T00:07:20;0.22;;;0.20;;
66112;SDS011;52893;52.870;5.822;2023-12-20T00:09:48;4.30;;;0.60;;
66112;SDS011;52893;52.870;5.822;2023-12-20T00:12:17;9.43;;;0.70;;
66112;SDS011;52893;52.870;5.822;2023-12-20T00:14:44;1.05;;;0.30;;
66112;SDS011;52893;52.870;5.822;2023-12-20T00:17:12;5.72;;;1.25;;
66112;SDS011;52893;52.870;5.822;2023-12-20T00:19:39;3.85;;;0.90;;
66112;SDS011;52893;52.870;5.822;2023-12-20T00:22:07;6.30;;;0.82;;
66112;SDS011;52893;52.870;5.822;2023-12-20T00:24:34;4.43;;;0.50;;
66112;SDS011;52893;52.870;5.822;2023-12-20T00:27:01;11.75;;;0.93;;
66112;SDS011;52893;52.870;5.822;2023-12-20T00:29:30;13.40;;;1.83;;
66112;SDS011;52893;52.870;5.822;2023-12-20T00:31:57;10.98;;;1.42;;
66112;SDS011;52893;52.870;5.822;2023-12-20T00:34:25;7.93;;;1.38;;
66112;SDS011;52893;52.870;5.822;2023-12-20T00:36:52;7.28;;;1.50;;
66112;SDS011;52893;52.870;5.822;2023-12-20T00:39:20;7.53;;;1.52;;
66112;SDS011;52893;52.870;5.822;2023-12-20T00:41:48;17.05;;;2.25;;
66112;SDS011;52893;52.870;5.822;2023-12-20T00:44:17;2.22;;;0.28;;
66112;SDS011;52893;52.870;5.822;2023-12-20T00:46:46;3.95;;;0.25;;
66112;SDS011;52893;52.870;5.822;2023-12-20T00:49:13;1.88;;;0.35;;
66112;SDS011;52893;52.870;5.822;2023-12-20T00:51:41;0.00;;;0.00;;
66112;SDS011;52893;52.870;5.822;2023-12-20T00:54:08;4.28;;;1.33;;
66112;SDS011;52893;52.870;5.822;2023-12-20T00:56:36;5.82;;;0.60;;
66112;SDS011;52893;52.870;5.822;2023-12-20T00:59:03;2.33;;;0.57;;
66112;SDS011;52893;52.870;5.822;2023-12-20T01:01:30;2.38;;;0.50;;
66112;SDS011;52893;52.870;5.822;2023-12-20T01:04:00;5.47;;;1.30;;
66112;SDS011;52893;52.870;5.822;2023-12-20T01:06:27;5.90;;;0.95;;
66112;SDS011;52893;52.870;5.822;2023-12-20T01:08:55;4.82;;;0.95;;
66112;SDS011;52893;52.870;5.822;2023-12-20T01:11:22;4.13;;;0.45;;
66112;SDS011;52893;52.870;5.822;2023-12-20T01:13:49;7.43;;;1.35;;
66112;SDS011;52893;52.870;5.822;2023-12-20T01:16:17;1.00;;;0.30;;
66112;SDS011;52893;52.870;5.822;2023-12-20T01:18:44;11.60;;;0.55;;
66112;SDS011;52893;52.870;5.822;2023-12-20T01:21:13;7.60;;;1.17;;
66112;SDS011;52893;52.870;5.822;2023-12-20T01:23:41;2.35;;;0.65;;
66112;SDS011;52893;52.870;5.822;2023-12-20T01:26:08;16.45;;;2.42;;
66112;SDS011;52893;52.870;5.822;2023-12-20T01:28:36;2.67;;;0.25;;
66112;SDS011;52893;52.870;5.822;2023-12-20T01:31:03;1.48;;;0.45;;
66112;SDS011;52893;52.870;5.822;2023-12-20T01:33:31;6.95;;;1.00;;
66112;SDS011;52893;52.870;5.822;2023-12-20T01:35:58;7.82;;;0.88;;
66112;SDS011;52893;52.870;5.822;2023-12-20T01:38:27;15.55;;;2.03;;
66112;SDS011;52893;52.870;5.822;2023-12-20T01:40:54;4.88;;;1.20;;
66112;SDS011;52893;52.870;5.822;2023-12-20T01:43:22;11.43;;;2.53;;
66112;SDS011;52893;52.870;5.822;2023-12-20T01:45:49;17.17;;;1.65;;
66112;SDS011;52893;52.870;5.822;2023-12-20T01:48:17;16.83;;;1.85;;
66112;SDS011;52893;52.870;5.822;2023-12-20T01:50:45;13.18;;;0.93;;
66112;SDS011;52893;52.870;5.822;2023-12-20T01:53:13;1.17;;;0.32;;
66112;SDS011;52893;52.870;5.822;2023-12-20T01:55:44;3.17;;;0.47;;
66112;SDS011;52893;52.870;5.822;2023-12-20T01:58:12;13.07;;;1.80;;
66112;SDS011;52893;52.870;5.822;2023-12-20T02:00:40;2.85;;;0.57;;
66112;SDS011;52893;52.870;5.822;2023-12-20T02:03:08;8.98;;;1.05;;
66112;SDS011;52893;52.870;5.822;2023-12-20T02:05:35;3.08;;;0.52;;
66112;SDS011;52893;52.870;5.822;2023-12-20T02:08:03;5.82;;;1.13;;
66112;SDS011;52893;52.870;5.822;2023-12-20T02:10:31;4.78;;;0.90;;
66112;SDS011;52893;52.870;5.822;2023-12-20T02:13:00;6.82;;;1.08;;
66112;SDS011;52893;52.870;5.822;2023-12-20T02:15:27;10.65;;;1.25;;
66112;SDS011;52893;52.870;5.822;2023-12-20T02:17:54;14.13;;;2.08;;
66112;SDS011;52893;52.870;5.822;2023-12-20T02:20:22;13.55;;;2.08;;
66112;SDS011;52893;52.870;5.822;2023-12-20T02:22:50;12.68;;;1.83;;
66112;SDS011;52893;52.870;5.822;2023-12-20T02:25:18;5.47;;;1.48;;
66112;SDS011;52893;52.870;5.822;2023-12-20T02:27:45;3.50;;;0.63;;
66112;SDS011;52893;52.870;5.822;2023-12-20T02:30:12;10.30;;;1.67;;
66112;SDS011;52893;52.870;5.822;2023-12-20T02:32:40;10.40;;;2.00;;
66112;SDS011;52893;52.870;5.822;2023-12-20T02:35:07;2.40;;;1.02;;
66112;SDS011;52893;52.870;5.822;2023-12-20T02:37:35;7.68;;;1.02;;
66112;SDS011;52893;52.870;5.822;2023-12-20T02:40:04;8.90;;;1.33;;
66112;SDS011;52893;52.870;5.822;2023-12-20T02:42:32;11.48;;;2.03;;
66112;SDS011;52893;52.870;5.822;2023-12-20T02:45:00;9.55;;;0.95;;
66112;SDS011;52893;52.870;5.822;2023-12-20T02:47:27;5.03;;;0.80;;
66112;SDS011;52893;52.870;5.822;2023-12-20T02:49:55;13.43;;;1.80;;
66112;SDS011;52893;52.870;5.822;2023-12-20T02:52:23;15.55;;;2.38;;
66112;SDS011;52893;52.870;5.822;2023-12-20T02:54:51;4.43;;;0.98;;
66112;SDS011;52893;52.870;5.822;2023-12-20T02:57:20;18.55;;;2.47;;
66112;SDS011;52893;52.870;5.822;2023-12-20T02:59:47;17.88;;;2.65;;
66112;SDS011;52893;52.870;5.822;2023-12-20T03:02:14;17.77;;;2.28;;
66112;SDS011;52893;52.870;5.822;2023-12-20T03:04:42;7.28;;;1.02;;
66112;SDS011;52893;52.870;5.822;2023-12-20T03:07:09;12.90;;;2.42;;
66112;SDS011;52893;52.870;5.822;2023-12-20T03:09:37;9.02;;;1.92;;
66112;SDS011;52893;52.870;5.822;2023-12-20T03:12:05;5.05;;;0.50;;
66112;SDS011;52893;52.870;5.822;2023-12-20T03:14:34;21.30;;;3.25;;
66112;SDS011;52893;52.870;5.822;2023-12-20T03:17:01;9.05;;;1.42;;
66112;SDS011;52893;52.870;5.822;2023-12-20T03:19:28;10.18;;;1.33;;
66112;SDS011;52893;52.870;5.822;2023-12-20T03:21:56;5.72;;;0.65;;
66112;SDS011;52893;52.870;5.822;2023-12-20T03:24:26;9.63;;;1.98;;
66112;SDS011;52893;52.870;5.822;2023-12-20T03:26:54;14.90;;;2.30;;
66112;SDS011;52893;52.870;5.822;2023-12-20T03:29:21;11.95;;;2.05;;
66112;SDS011;52893;52.870;5.822;2023-12-20T03:31:50;8.32;;;1.50;;
66112;SDS011;52893;52.870;5.822;2023-12-20T03:34:17;12.02;;;1.75;;
66112;SDS011;52893;52.870;5.822;2023-12-20T03:36:44;14.00;;;1.50;;
66112;SDS011;52893;52.870;5.822;2023-12-20T03:39:13;12.40;;;2.08;;
66112;SDS011;52893;52.870;5.822;2023-12-20T03:41:40;10.52;;;1.73;;
66112;SDS011;52893;52.870;5.822;2023-12-20T03:44:08;2.92;;;1.02;;
66112;SDS011;52893;52.870;5.822;2023-12-20T03:46:35;7.68;;;1.38;;
66112;SDS011;52893;52.870;5.822;2023-12-20T03:49:04;4.15;;;0.90;;
66112;SDS011;52893;52.870;5.822;2023-12-20T03:51:31;8.98;;;2.22;;
66112;SDS011;52893;52.870;5.822;2023-12-20T03:53:58;17.20;;;2.10;;
66112;SDS011;52893;52.870;5.822;2023-12-20T03:56:26;3.47;;;1.05;;
66112;SDS011;52893;52.870;5.822;2023-12-20T03:58:53;13.23;;;2.65;;
66112;SDS011;52893;52.870;5.822;2023-12-20T04:01:21;11.32;;;1.35;;
66112;SDS011;52893;52.870;5.822;2023-12-20T04:03:48;5.63;;;0.80;;
66112;SDS011;52893;52.870;5.822;2023-12-20T04:06:17;19.55;;;2.85;;
66112;SDS011;52893;52.870;5.822;2023-12-20T04:08:45;21.17;;;2.97;;
66112;SDS011;52893;52.870;5.822;2023-12-20T04:11:12;12.35;;;2.17;;
66112;SDS011;52893;52.870;5.822;2023-12-20T04:13:40;7.35;;;1.77;;
66112;SDS011;52893;52.870;5.822;2023-12-20T04:16:07;9.90;;;0.98;;
66112;SDS011;52893;52.870;5.822;2023-12-20T04:18:35;11.57;;;2.13;;
66112;SDS011;52893;52.870;5.822;2023-12-20T04:21:02;17.33;;;2.58;;
66112;SDS011;52893;52.870;5.822;2023-12-20T04:23:31;15.43;;;1.52;;
66112;SDS011;52893;52.870;5.822;2023-12-20T04:25:59;21.60;;;3.42;;
66112;SDS011;52893;52.870;5.822;2023-12-20T04:28:27;5.32;;;1.10;;
66112;SDS011;52893;52.870;5.822;2023-12-20T04:30:56;11.20;;;2.30;;
66112;SDS011;52893;52.870;5.822;2023-12-20T04:33:23;6.85;;;1.60;;
66112;SDS011;52893;52.870;5.822;2023-12-20T04:35:50;26.17;;;2.92;;
66112;SDS011;52893;52.870;5.822;2023-12-20T04:38:18;13.15;;;2.42;;
66112;SDS011;52893;52.870;5.822;2023-12-20T04:40:47;17.52;;;2.90;;
66112;SDS011;52893;52.870;5.822;2023-12-20T04:43:14;13.65;;;1.92;;
66112;SDS011;52893;52.870;5.822;2023-12-20T04:45:42;19.30;;;2.67;;
66112;SDS011;52893;52.870;5.822;2023-12-20T04:48:09;11.90;;;1.27;;
66112;SDS011;52893;52.870;5.822;2023-12-20T04:50:36;8.98;;;1.40;;
66112;SDS011;52893;52.870;5.822;2023-12-20T04:53:03;14.82;;;1.90;;
66112;SDS011;52893;52.870;5.822;2023-12-20T04:55:31;9.75;;;1.38;;
66112;SDS011;52893;52.870;5.822;2023-12-20T04:58:00;13.50;;;2.92;;
66112;SDS011;52893;52.870;5.822;2023-12-20T05:00:27;23.27;;;3.53;;
66112;SDS011;52893;52.870;5.822;2023-12-20T05:02:56;10.98;;;2.13;;
66112;SDS011;52893;52.870;5.822;2023-12-20T05:05:23;14.93;;;2.33;;
66112;SDS011;52893;52.870;5.822;2023-12-20T05:07:51;14.98;;;2.70;;
66112;SDS011;52893;52.870;5.822;2023-12-20T05:10:18;19.95;;;2.90;;
66112;SDS011;52893;52.870;5.822;2023-12-20T05:12:46;11.30;;;2.25;;
66112;SDS011;52893;52.870;5.822;2023-12-20T05:15:15;1.15;;;1.05;;
66112;SDS011;52893;52.870;5.822;2023-12-20T05:17:42;9.82;;;1.77;;
66112;SDS011;52893;52.870;5.822;2023-12-20T05:20:09;9.63;;;1.95;;
66112;SDS011;52893;52.870;5.822;2023-12-20T05:22:37;11.18;;;2.13;;
66112;SDS011;52893;52.870;5.822;2023-12-20T05:25:04;10.80;;;2.17;;
66112;SDS011;52893;52.870;5.822;2023-12-20T05:27:32;30.40;;;3.35;;
66112;SDS011;52893;52.870;5.822;2023-12-20T05:30:00;14.68;;;2.80;;
66112;SDS011;52893;52.870;5.822;2023-12-20T05:32:28;19.70;;;2.53;;
66112;SDS011;52893;52.870;5.822;2023-12-20T05:34:57;18.05;;;3.40;;
66112;SDS011;52893;52.870;5.822;2023-12-20T05:37:24;6.15;;;1.27;;
66112;SDS011;52893;52.870;5.822;2023-12-20T05:39:52;8.35;;;1.73;;
66112;SDS011;52893;52.870;5.822;2023-12-20T05:42:19;13.00;;;2.28;;
66112;SDS011;52893;52.870;5.822;2023-12-20T05:44:46;12.85;;;2.15;;
66112;SDS011;52893;52.870;5.822;2023-12-20T05:47:14;18.50;;;1.85;;
66112;SDS011;52893;52.870;5.822;2023-12-20T05:49:43;10.32;;;1.75;;
66112;SDS011;52893;52.870;5.822;2023-12-20T05:52:11;8.43;;;1.08;;
66112;SDS011;52893;52.870;5.822;2023-12-20T05:54:38;6.65;;;1.23;;
66112;SDS011;52893;52.870;5.822;2023-12-20T05:57:05;10.18;;;1.92;;
66112;SDS011;52893;52.870;5.822;2023-12-20T05:59:33;17.42;;;2.63;;
66112;SDS011;52893;52.870;5.822;2023-12-20T06:02:00;19.17;;;2.80;;
66112;SDS011;52893;52.870;5.822;2023-12-20T06:04:27;15.82;;;2.63;;
66112;SDS011;52893;52.870;5.822;2023-12-20T06:06:56;4.13;;;1.13;;
66112;SDS011;52893;52.870;5.822;2023-12-20T06:09:26;9.32;;;1.80;;
66112;SDS011;52893;52.870;5.822;2023-12-20T06:11:54;8.85;;;2.25;;
66112;SDS011;52893;52.870;5.822;2023-12-20T06:14:21;9.20;;;1.88;;
66112;SDS011;52893;52.870;5.822;2023-12-20T06:16:48;17.27;;;2.30;;
66112;SDS011;52893;52.870;5.822;2023-12-20T06:19:16;7.10;;;1.20;;
66112;SDS011;52893;52.870;5.822;2023-12-20T06:21:43;1.83;;;0.63;;
66112;SDS011;52893;52.870;5.822;2023-12-20T06:24:12;20.80;;;2.30;;
66112;SDS011;52893;52.870;5.822;2023-12-20T06:26:39;23.45;;;3.25;;
66112;SDS011;52893;52.870;5.822;2023-12-20T06:29:07;10.98;;;2.10;;
66112;SDS011;52893;52.870;5.822;2023-12-20T06:31:34;16.52;;;2.65;;
66112;SDS011;52893;52.870;5.822;2023-12-20T06:34:02;11.15;;;1.75;;
66112;SDS011;52893;52.870;5.822;2023-12-20T06:36:29;17.98;;;2.25;;
66112;SDS011;52893;52.870;5.822;2023-12-20T06:38:57;9.93;;;2.25;;
66112;SDS011;52893;52.870;5.822;2023-12-20T06:41:26;16.92;;;2.13;;
66112;SDS011;52893;52.870;5.822;2023-12-20T06:43:53;26.08;;;3.55;;
66112;SDS011;52893;52.870;5.822;2023-12-20T06:46:20;5.68;;;1.70;;
66112;SDS011;52893;52.870;5.822;2023-12-20T06:48:49;8.35;;;1.45;;
66112;SDS011;52893;52.870;5.822;2023-12-20T06:51:16;4.40;;;1.30;;
66112;SDS011;52893;52.870;5.822;2023-12-20T06:53:45;16.58;;;2.45;;
66112;SDS011;52893;52.870;5.822;2023-12-20T06:56:12;20.70;;;3.00;;
66112;SDS011;52893;52.870;5.822;2023-12-20T06:58:42;15.10;;;2.53;;
66112;SDS011;52893;52.870;5.822;2023-12-20T07:01:10;21.77;;;2.83;;
66112;SDS011;52893;52.870;5.822;2023-12-20T07:03:40;19.92;;;3.38;;
66112;SDS011;52893;52.870;5.822;2023-12-20T07:06:07;13.98;;;1.92;;
66112;SDS011;52893;52.870;5.822;2023-12-20T07:08:35;10.73;;;2.05;;
66112;SDS011;52893;52.870;5.822;2023-12-20T07:11:03;19.15;;;2.10;;
66112;SDS011;52893;52.870;5.822;2023-12-20T07:13:31;8.30;;;1.38;;
66112;SDS011;52893;52.870;5.822;2023-12-20T07:16:00;12.27;;;2.15;;
66112;SDS011;52893;52.870;5.822;2023-12-20T07:18:27;6.57;;;1.05;;
66112;SDS011;52893;52.870;5.822;2023-12-20T07:20:54;10.63;;;2.00;;
66112;SDS011;52893;52.870;5.822;2023-12-20T07:23:22;23.05;;;3.20;;
66112;SDS011;52893;52.870;5.822;2023-12-20T07:25:49;8.68;;;2.60;;
66112;SDS011;52893;52.870;5.822;2023-12-20T07:28:17;17.38;;;1.70;;
66112;SDS011;52893;52.870;5.822;2023-12-20T07:30:44;22.52;;;4.03;;
66112;SDS011;52893;52.870;5.822;2023-12-20T07:33:13;17.40;;;3.05;;
66112;SDS011;52893;52.870;5.822;2023-12-20T07:35:42;6.60;;;1.33;;
66112;SDS011;52893;52.870;5.822;2023-12-20T07:38:11;16.60;;;3.38;;
66112;SDS011;52893;52.870;5.822;2023-12-20T07:40:39;14.95;;;2.42;;
66112;SDS011;52893;52.870;5.822;2023-12-20T07:43:06;15.27;;;2.72;;
66112;SDS011;52893;52.870;5.822;2023-12-20T07:45:34;15.18;;;2.22;;
66112;SDS011;52893;52.870;5.822;2023-12-20T07:48:01;15.23;;;2.90;;
66112;SDS011;52893;52.870;5.822;2023-12-20T07:50:31;26.25;;;3.72;;
66112;SDS011;52893;52.870;5.822;2023-12-20T07:52:59;26.15;;;4.05;;
66112;SDS011;52893;52.870;5.822;2023-12-20T07:55:26;15.65;;;2.55;;
66112;SDS011;52893;52.870;5.822;2023-12-20T07:57:54;12.45;;;1.75;;
66112;SDS011;52893;52.870;5.822;2023-12-20T08:00:21;12.07;;;1.92;;
66112;SDS011;52893;52.870;5.822;2023-12-20T08:02:49;9.35;;;2.13;;
66112;SDS011;52893;52.870;5.822;2023-12-20T08:05:16;14.90;;;2.65;;
66112;SDS011;52893;52.870;5.822;2023-12-20T08:07:45;17.42;;;3.45;;
66112;SDS011;52893;52.870;5.822;2023-12-20T08:10:13;25.75;;;3.83;;
66112;SDS011;52893;52.870;5.822;2023-12-20T08:12:40;19.88;;;2.55;;
66112;SDS011;52893;52.870;5.822;2023-12-20T08:15:08;7.38;;;1.50;;
66112;SDS011;52893;52.870;5.822;2023-12-20T08:17:36;18.40;;;2.97;;
66112;SDS011;52893;52.870;5.822;2023-12-20T08:20:04;26.48;;;3.83;;
66112;SDS011;52893;52.870;5.822;2023-12-20T08:22:32;17.52;;;1.98;;
66112;SDS011;52893;52.870;5.822;2023-12-20T08:25:01;13.43;;;1.92;;
66112;SDS011;52893;52.870;5.822;2023-12-20T08:27:28;10.95;;;1.45;;
66112;SDS011;52893;52.870;5.822;2023-12-20T08:29:57;11.13;;;1.67;;
66112;SDS011;52893;52.870;5.822;2023-12-20T08:32:25;15.07;;;2.85;;
66112;SDS011;52893;52.870;5.822;2023-12-20T08:34:53;22.98;;;3.85;;
66112;SDS011;52893;52.870;5.822;2023-12-20T08:37:20;10.93;;;2.33;;
66112;SDS011;52893;52.870;5.822;2023-12-20T08:39:49;15.95;;;2.45;;
66112;SDS011;52893;52.870;5.822;2023-12-20T08:42:19;11.55;;;2.05;;
66112;SDS011;52893;52.870;5.822;2023-12-20T08:44:46;11.15;;;2.25;;
66112;SDS011;52893;52.870;5.822;2023-12-20T08:47:14;9.05;;;2.25;;
66112;SDS011;52893;52.870;5.822;2023-12-20T08:49:41;24.88;;;2.95;;
66112;SDS011;52893;52.870;5.822;2023-12-20T08:52:09;21.98;;;3.33;;
66112;SDS011;52893;52.870;5.822;2023-12-20T08:54:36;15.70;;;2.17;;
66112;SDS011;52893;52.870;5.822;2023-12-20T08:57:04;22.08;;;4.40;;
66112;SDS011;52893;52.870;5.822;2023-12-20T08:59:34;12.95;;;2.25;;
66112;SDS011;52893;52.870;5.822;2023-12-20T09:02:01;16.42;;;2.33;;
66112;SDS011;52893;52.870;5.822;2023-12-20T09:04:28;11.43;;;2.25;;
66112;SDS011;52893;52.870;5.822;2023-12-20T09:06:56;19.30;;;3.55;;
66112;SDS011;52893;52.870;5.822;2023-12-20T09:09:26;10.55;;;2.50;;
66112;SDS011;52893;52.870;5.822;2023-12-20T09:11:54;9.23;;;1.90;;
66112;SDS011;52893;52.870;5.822;2023-12-20T09:14:22;10.05;;;2.47;;
66112;SDS011;52893;52.870;5.822;2023-12-20T09:16:52;15.07;;;3.05;;
66112;SDS011;52893;52.870;5.822;2023-12-20T09:19:21;11.65;;;2.38;;
66112;SDS011;52893;52.870;5.822;2023-12-20T09:21:49;18.63;;;3.50;;
66112;SDS011;52893;52.870;5.822;2023-12-20T09:24:16;24.33;;;3.80;;
66112;SDS011;52893;52.870;5.822;2023-12-20T09:26:44;20.85;;;3.08;;
66112;SDS011;52893;52.870;5.822;2023-12-20T09:29:11;15.45;;;2.65;;
66112;SDS011;52893;52.870;5.822;2023-12-20T09:31:41;6.80;;;1.33;;
66112;SDS011;52893;52.870;5.822;2023-12-20T09:34:11;20.20;;;2.88;;
66112;SDS011;52893;52.870;5.822;2023-12-20T09:36:38;13.10;;;2.28;;
66112;SDS011;52893;52.870;5.822;2023-12-20T09:39:12;9.45;;;0.70;;
66112;SDS011;52893;52.870;5.822;2023-12-20T09:41:42;2.88;;;0.80;;
66112;SDS011;52893;52.870;5.822;2023-12-20T09:44:13;4.35;;;0.85;;
66112;SDS011;52893;52.870;5.822;2023-12-20T09:46:44;6.53;;;0.70;;
66112;SDS011;52893;52.870;5.822;2023-12-20T09:49:14;1.75;;;0.57;;
66112;SDS011;52893;52.870;5.822;2023-12-20T09:51:43;0.35;;;0.30;;
66112;SDS011;52893;52.870;5.822;2023-12-20T09:54:14;2.70;;;0.75;;
66112;SDS011;52893;52.870;5.822;2023-12-20T09:56:43;1.52;;;0.50;;
66112;SDS011;52893;52.870;5.822;2023-12-20T09:59:12;3.85;;;0.55;;
66112;SDS011;52893;52.870;5.822;2023-12-20T10:01:39;1.23;;;0.47;;
66112;SDS011;52893;52.870;5.822;2023-12-20T10:04:08;2.90;;;0.70;;
66112;SDS011;52893;52.870;5.822;2023-12-20T10:06:40;9.27;;;1.05;;
66112;SDS011;52893;52.870;5.822;2023-12-20T10:09:08;4.85;;;0.80;;
66112;SDS011;52893;52.870;5.822;2023-12-20T10:11:37;6.18;;;1.17;;
66112;SDS011;52893;52.870;5.822;2023-12-20T10:14:04;7.45;;;0.98;;
66112;SDS011;52893;52.870;5.822;2023-12-20T10:16:33;4.80;;;0.70;;
66112;SDS011;52893;52.870;5.822;2023-12-20T10:19:01;1.27;;;0.63;;
66112;SDS011;52893;52.870;5.822;2023-12-20T10:21:28;6.55;;;0.93;;
66112;SDS011;52893;52.870;5.822;2023-12-20T10:23:58;0.95;;;0.47;;
66112;SDS011;52893;52.870;5.822;2023-12-20T10:26:26;0.20;;;0.20;;
66112;SDS011;52893;52.870;5.822;2023-12-20T10:28:54;3.53;;;0.45;;
66112;SDS011;52893;52.870;5.822;2023-12-20T10:31:26;3.97;;;0.17;;
66112;SDS011;52893;52.870;5.822;2023-12-20T10:33:55;1.92;;;0.40;;
66112;SDS011;52893;52.870;5.822;2023-12-20T10:36:24;2.05;;;0.38;;
66112;SDS011;52893;52.870;5.822;2023-12-20T10:38:54;5.93;;;0.65;;
66112;SDS011;52893;52.870;5.822;2023-12-20T10:41:26;3.25;;;0.32;;
66112;SDS011;52893;52.870;5.822;2023-12-20T10:43:58;5.65;;;1.02;;
66112;SDS011;52893;52.870;5.822;2023-12-20T10:46:27;6.18;;;0.63;;
66112;SDS011;52893;52.870;5.822;2023-12-20T10:48:56;4.07;;;0.93;;
66112;SDS011;52893;52.870;5.822;2023-12-20T10:51:24;7.60;;;0.82;;
66112;SDS011;52893;52.870;5.822;2023-12-20T10:53:53;3.75;;;1.33;;
66112;SDS011;52893;52.870;5.822;2023-12-20T10:56:23;6.43;;;0.88;;
66112;SDS011;52893;52.870;5.822;2023-12-20T10:58:52;6.63;;;0.60;;
66112;SDS011;52893;52.870;5.822;2023-12-20T11:01:21;2.50;;;0.55;;
66112;SDS011;52893;52.870;5.822;2023-12-20T11:03:50;0.15;;;0.00;;
66112;SDS011;52893;52.870;5.822;2023-12-20T11:06:22;4.63;;;0.63;;
66112;SDS011;52893;52.870;5.822;2023-12-20T11:08:58;3.13;;;0.50;;
66112;SDS011;52893;52.870;5.822;2023-12-20T11:11:35;0.57;;;0.17;;
66112;SDS011;52893;52.870;5.822;2023-12-20T11:14:08;4.32;;;0.90;;
66112;SDS011;52893;52.870;5.822;2023-12-20T11:16:42;0.57;;;0.10;;
66112;SDS011;52893;52.870;5.822;2023-12-20T11:19:10;2.65;;;0.63;;
66112;SDS011;52893;52.870;5.822;2023-12-20T11:21:39;10.82;;;1.30;;
66112;SDS011;52893;52.870;5.822;2023-12-20T11:24:07;7.05;;;0.82;;
66112;SDS011;52893;52.870;5.822;2023-12-20T11:26:34;3.03;;;0.30;;
66112;SDS011;52893;52.870;5.822;2023-12-20T11:32:03;5.03;;;0.93;;
66112;SDS011;52893;52.870;5.822;2023-12-20T11:34:53;4.55;;;0.52;;
66112;SDS011;52893;52.870;5.822;2023-12-20T11:37:21;1.85;;;0.20;;
66112;SDS011;52893;52.870;5.822;2023-12-20T11:39:53;0.98;;;0.75;;
66112;SDS011;52893;52.870;5.822;2023-12-20T11:42:22;1.45;;;0.10;;
66112;SDS011;52893;52.870;5.822;2023-12-20T11:44:51;2.90;;;0.40;;
66112;SDS011;52893;52.870;5.822;2023-12-20T11:47:19;6.15;;;0.68;;
66112;SDS011;52893;52.870;5.822;2023-12-20T11:49:47;3.17;;;0.28;;
66112;SDS011;52893;52.870;5.822;2023-12-20T11:52:16;2.75;;;0.40;;
66112;SDS011;52893;52.870;5.822;2023-12-20T11:54:44;3.40;;;0.57;;
66112;SDS011;52893;52.870;5.822;2023-12-20T11:57:12;4.80;;;1.00;;
66112;SDS011;52893;52.870;5.822;2023-12-20T11:59:39;6.32;;;0.88;;
66112;SDS011;52893;52.870;5.822;2023-12-20T12:02:11;1.73;;;0.30;;
66112;SDS011;52893;52.870;5.822;2023-12-20T12:04:41;4.63;;;0.85;;
66112;SDS011;52893;52.870;5.822;2023-12-20T12:07:08;0.17;;;0.10;;
66112;SDS011;52893;52.870;5.822;2023-12-20T12:09:35;3.30;;;0.45;;
66112;SDS011;52893;52.870;5.822;2023-12-20T12:12:03;7.47;;;0.88;;
66112;SDS011;52893;52.870;5.822;2023-12-20T12:14:32;0.70;;;0.15;;
66112;SDS011;52893;52.870;5.822;2023-12-20T12:17:01;3.60;;;0.60;;
66112;SDS011;52893;52.870;5.822;2023-12-20T12:19:30;1.27;;;0.40;;
66112;SDS011;52893;52.870;5.822;2023-12-20T12:22:04;3.40;;;0.55;;
66112;SDS011;52893;52.870;5.822;2023-12-20T12:24:35;4.97;;;0.50;;
66112;SDS011;52893;52.870;5.822;2023-12-20T12:27:03;2.80;;;0.57;;
66112;SDS011;52893;52.870;5.822;2023-12-20T12:29:33;5.72;;;0.63;;
66112;SDS011;52893;52.870;5.822;2023-12-20T12:32:00;1.75;;;0.00;;
66112;SDS011;52893;52.870;5.822;2023-12-20T12:34:29;0.10;;;0.10;;
66112;SDS011;52893;52.870;5.822;2023-12-20T12:36:57;0.13;;;0.13;;
66112;SDS011;52893;52.870;5.822;2023-12-20T12:39:25;3.50;;;0.10;;
66112;SDS011;52893;52.870;5.822;2023-12-20T12:41:53;3.30;;;0.45;;
66112;SDS011;52893;52.870;5.822;2023-12-20T12:44:20;0.43;;;0.43;;
66112;SDS011;52893;52.870;5.822;2023-12-20T12:46:49;0.10;;;0.10;;
66112;SDS011;52893;52.870;5.822;2023-12-20T12:49:17;3.95;;;0.93;;
66112;SDS011;52893;52.870;5.822;2023-12-20T12:51:46;1.50;;;0.13;;
66112;SDS011;52893;52.870;5.822;2023-12-20T12:54:15;4.22;;;0.10;;
66112;SDS011;52893;52.870;5.822;2023-12-20T12:56:43;1.95;;;0.30;;
66112;SDS011;52893;52.870;5.822;2023-12-20T12:59:12;3.55;;;0.17;;
66112;SDS011;52893;52.870;5.822;2023-12-20T13:01:40;1.30;;;0.20;;
66112;SDS011;52893;52.870;5.822;2023-12-20T13:04:08;0.63;;;0.10;;
66112;SDS011;52893;52.870;5.822;2023-12-20T13:06:36;2.33;;;0.60;;
66112;SDS011;52893;52.870;5.822;2023-12-20T13:09:06;4.88;;;0.47;;
66112;SDS011;52893;52.870;5.822;2023-12-20T13:11:35;0.15;;;0.10;;
66112;SDS011;52893;52.870;5.822;2023-12-20T13:14:02;0.00;;;0.00;;
66112;SDS011;52893;52.870;5.822;2023-12-20T13:16:30;2.45;;;0.50;;
66112;SDS011;52893;52.870;5.822;2023-12-20T13:18:57;10.18;;;1.23;;
66112;SDS011;52893;52.870;5.822;2023-12-20T13:21:25;0.93;;;0.32;;
66112;SDS011;52893;52.870;5.822;2023-12-20T13:23:53;8.85;;;0.30;;
66112;SDS011;52893;52.870;5.822;2023-12-20T13:26:22;9.63;;;1.33;;
66112;SDS011;52893;52.870;5.822;2023-12-20T13:28:49;4.55;;;0.75;;
66112;SDS011;52893;52.870;5.822;2023-12-20T13:31:16;8.15;;;1.00;;
66112;SDS011;52893;52.870;5.822;2023-12-20T13:33:44;4.03;;;0.50;;
66112;SDS011;52893;52.870;5.822;2023-12-20T13:36:11;8.15;;;1.00;;
66112;SDS011;52893;52.870;5.822;2023-12-20T13:38:39;6.30;;;0.57;;
66112;SDS011;52893;52.870;5.822;2023-12-20T13:41:07;25.58;;;3.20;;
66112;SDS011;52893;52.870;5.822;2023-12-20T13:43:36;3.17;;;1.17;;
66112;SDS011;52893;52.870;5.822;2023-12-20T13:46:04;5.25;;;0.75;;
66112;SDS011;52893;52.870;5.822;2023-12-20T13:48:32;3.05;;;0.63;;
66112;SDS011;52893;52.870;5.822;2023-12-20T13:50:59;8.73;;;1.58;;
66112;SDS011;52893;52.870;5.822;2023-12-20T13:53:28;4.65;;;1.00;;
66112;SDS011;52893;52.870;5.822;2023-12-20T13:55:57;15.25;;;1.60;;
66112;SDS011;52893;52.870;5.822;2023-12-20T13:58:25;3.35;;;0.73;;
66112;SDS011;52893;52.870;5.822;2023-12-20T14:00:54;6.75;;;1.40;;
66112;SDS011;52893;52.870;5.822;2023-12-20T14:03:22;2.65;;;1.08;;
66112;SDS011;52893;52.870;5.822;2023-12-20T14:05:49;7.97;;;2.58;;
66112;SDS011;52893;52.870;5.822;2023-12-20T14:08:17;10.65;;;1.65;;
66112;SDS011;52893;52.870;5.822;2023-12-20T14:10:44;8.07;;;1.25;;
66112;SDS011;52893;52.870;5.822;2023-12-20T14:13:12;2.15;;;0.82;;
66112;SDS011;52893;52.870;5.822;2023-12-20T14:15:39;0.88;;;0.30;;
66112;SDS011;52893;52.870;5.822;2023-12-20T14:18:08;3.85;;;0.55;;
66112;SDS011;52893;52.870;5.822;2023-12-20T14:20:36;9.55;;;1.88;;
66112;SDS011;52893;52.870;5.822;2023-12-20T14:23:05;13.38;;;1.98;;
66112;SDS011;52893;52.870;5.822;2023-12-20T14:25:32;17.02;;;1.98;;
66112;SDS011;52893;52.870;5.822;2023-12-20T14:28:03;13.85;;;2.03;;
66112;SDS011;52893;52.870;5.822;2023-12-20T14:30:30;6.55;;;0.93;;
66112;SDS011;52893;52.870;5.822;2023-12-20T14:32:58;11.50;;;1.40;;
66112;SDS011;52893;52.870;5.822;2023-12-20T14:35:27;6.72;;;2.53;;
66112;SDS011;52893;52.870;5.822;2023-12-20T14:37:54;6.45;;;0.60;;
66112;SDS011;52893;52.870;5.822;2023-12-20T14:40:22;10.20;;;0.98;;
66112;SDS011;52893;52.870;5.822;2023-12-20T14:42:49;7.05;;;1.25;;
66112;SDS011;52893;52.870;5.822;2023-12-20T14:45:17;9.25;;;1.63;;
66112;SDS011;52893;52.870;5.822;2023-12-20T14:47:45;4.20;;;1.27;;
66112;SDS011;52893;52.870;5.822;2023-12-20T14:50:13;9.50;;;1.83;;
66112;SDS011;52893;52.870;5.822;2023-12-20T14:52:45;8.68;;;1.55;;